Etusivu
METAR-TAF:

METAR-TAF

Lentoasemat :

Öljynporauslautta

P11-b, Alankomaat

Leveyspiiri: 52-21-36N, Pituuspiiri: 3-20-30E, korkeus merenpinnasta: 24 m

Tämänhetkinen sää

Tämä raportti tehtiin 18 minuuttia sitten, kello 15.25 UTC
Tuuli 9 kn etelästä/lounaasta
Lämpötila 9°C
Kosteus 87%
Ilmanpaine 1032 hPa
Näkyvyys 10 km tai enemmän
Hajonneita pilviä 900 ft:n korkeudessa
Pilvistä 1000 ft:n korkeudessa

METAR: EHPG 211525Z AUTO 21009KT 9999 BKN009 OVC010 09/07 Q1032 W///H///

Aika: 16:43 (15:43 UTC)


TAF: puuttuu

Säähavainnot ja -ennusteet yli 4000 lentoasemalta (METAR- ja TAF-raportit).

Käytössä olevat sääasemat on merkitty karttaan keltaisilla ja punaisilla pisteillä.

Aseta hiiri pisteen päälle nähdäksesi sääaseman nimen.

Klikkaa sitten nähdäksesi säähavainnot ja -ennusteet.

Kartan vaihtaminen: klikkaa mustalla rastilla varustettuja vihreitä pisteitä, niin voit zoomata sisään; viivalla varustettua vihreää pistettä, niin voit zoomata ulos tai vihreitä nuolia, niin pääset viereisille kartoille.


METAR-TAF: